Terminal Aerodrome Forecast
Issued by NWS Cleveland, OH

Home | Current Version | Previous Version | Graphics & Text | Print | Product List | Glossary On
Versions: 1 2 3 4 5 6 7 8 9 10 11 12 13 14 15 16 17 18 19
000
FTUS41 KCLE 281130
TAFCAK
TAF
KCAK 281130Z 2812/2912 24003KT P6SM SCT045 BKN200
      TEMPO 2812/2813 4SM BR
     FM281500 23005KT P6SM SCT030 BKN200
     FM282000 28005KT P6SM VCTS SCT040CB BKN120
     FM290100 33004KT 6SM BR SCT040 BKN150
     FM290700 01004KT 5SM BR SCT040 BKN150=

USA.gov is the U.S. government's official web portal to all federal, state and local government web resources and services.